createdAt,value
2017-06-20T00:00:02.549Z,0
2017-06-20T00:05:03.249Z,1
2017-06-20T00:10:02.711Z,2
2017-06-20T00:15:02.956Z,2
2017-06-20T00:20:03.312Z,0
2017-06-20T00:25:02.732Z,1
2017-06-20T00:30:03.279Z,2
2017-06-20T00:35:02.715Z,1
2017-06-20T00:40:02.804Z,0
2017-06-20T00:45:03.138Z,2
2017-06-20T00:50:02.555Z,1
2017-06-20T00:55:03.044Z,2
2017-06-20T01:00:02.466Z,2
2017-06-20T01:05:02.941Z,1
2017-06-20T01:10:03.300Z,0
2017-06-20T01:15:02.567Z,2
2017-06-20T01:20:03.016Z,2
2017-06-20T01:25:03.298Z,2
2017-06-20T01:30:02.671Z,2
2017-06-20T01:35:03.008Z,2
2017-06-20T01:40:02.493Z,2
2017-06-20T01:45:02.848Z,1
2017-06-20T01:50:03.329Z,1
2017-06-20T01:55:02.709Z,1
2017-06-20T02:00:03.054Z,2
2017-06-20T02:05:02.481Z,2
2017-06-20T02:10:02.896Z,2
2017-06-20T02:15:03.201Z,2
2017-06-20T02:20:02.631Z,0
2017-06-20T02:25:03.099Z,0
2017-06-20T02:30:02.563Z,0
2017-06-20T02:35:02.875Z,0
2017-06-20T02:40:03.242Z,0
2017-06-20T02:45:02.686Z,0
2017-06-20T02:50:03.152Z,0
2017-06-20T02:55:02.545Z,0
2017-06-20T03:00:02.879Z,0
2017-06-20T03:05:03.298Z,0
2017-06-20T03:10:02.667Z,0
2017-06-20T03:15:03.174Z,0
2017-06-20T03:20:02.528Z,0
2017-06-20T03:25:02.871Z,0
2017-06-20T03:30:03.247Z,0
2017-06-20T03:35:02.602Z,0
2017-06-20T03:40:02.986Z,0
2017-06-20T03:45:03.446Z,0
2017-06-20T03:50:02.764Z,0
2017-06-20T03:55:03.081Z,0
2017-06-20T04:00:03.587Z,0
2017-06-20T04:05:02.926Z,0
2017-06-20T04:10:03.358Z,0
2017-06-20T04:15:02.806Z,0
2017-06-20T04:20:03.199Z,0
2017-06-20T04:25:02.524Z,0
2017-06-20T04:30:03.094Z,0
2017-06-20T04:35:02.550Z,0
2017-06-20T04:40:03.057Z,0
2017-06-20T04:45:03.420Z,0
2017-06-20T04:50:02.827Z,0
2017-06-20T04:55:03.298Z,2
2017-06-20T05:00:02.657Z,0
2017-06-20T05:05:02.919Z,0
2017-06-20T05:10:03.379Z,0
2017-06-20T05:15:02.638Z,0
2017-06-20T05:20:03.016Z,0
2017-06-20T05:25:03.357Z,0
2017-06-20T05:30:02.762Z,0
2017-06-20T05:35:03.205Z,0
2017-06-20T05:40:02.630Z,0
2017-06-20T05:45:02.988Z,0
2017-06-20T05:50:02.539Z,1
2017-06-20T05:55:02.964Z,1
2017-06-20T06:00:02.472Z,0
2017-06-20T06:05:02.919Z,0
2017-06-20T06:10:03.448Z,4
2017-06-20T06:15:02.768Z,3
2017-06-20T06:20:03.140Z,3
2017-06-20T06:25:02.631Z,1
2017-06-20T06:30:02.997Z,4
2017-06-20T06:35:03.364Z,4
2017-06-20T06:40:02.821Z,5
2017-06-20T06:45:03.156Z,1
2017-06-20T06:50:02.640Z,5
2017-06-20T06:55:03.005Z,3
2017-06-20T07:00:03.452Z,2
2017-06-20T07:05:02.946Z,1
2017-06-20T07:10:03.360Z,3
2017-06-20T07:15:02.643Z,3
2017-06-20T07:20:02.963Z,2
2017-06-20T07:25:03.457Z,2
2017-06-20T07:30:02.732Z,3
2017-06-20T07:35:03.069Z,3
2017-06-20T07:40:02.532Z,3
2017-06-20T07:45:02.851Z,2
2017-06-20T07:50:03.356Z,2
2017-06-20T07:55:02.753Z,3
2017-06-20T08:00:03.262Z,2
2017-06-20T08:05:02.689Z,2
2017-06-20T08:10:03.171Z,2
2017-06-20T08:15:02.691Z,0
2017-06-20T08:20:02.802Z,2
2017-06-20T08:25:03.144Z,3
2017-06-20T08:30:03.170Z,0
2017-06-20T08:35:02.471Z,0
2017-06-20T08:40:03.163Z,2
2017-06-20T08:45:03.382Z,2
2017-06-20T08:50:02.689Z,3
2017-06-20T08:55:03.193Z,3
2017-06-20T09:00:03.150Z,2
2017-06-20T09:05:03.440Z,2
2017-06-20T09:10:02.549Z,1
2017-06-20T09:15:02.960Z,3
2017-06-20T09:20:03.242Z,3
2017-06-20T09:25:02.578Z,1
2017-06-20T09:30:02.975Z,2
2017-06-20T09:35:02.713Z,2
2017-06-20T09:40:03.196Z,2
2017-06-20T09:45:02.857Z,0
2017-06-20T09:50:03.375Z,2
2017-06-20T09:55:03.101Z,0
2017-06-20T10:00:03.230Z,1
2017-06-20T10:05:02.808Z,3
2017-06-20T10:10:03.048Z,4
2017-06-20T10:15:02.817Z,2
2017-06-20T10:20:03.107Z,3
2017-06-20T10:25:03.379Z,0
2017-06-20T10:30:02.485Z,0
2017-06-20T10:35:02.856Z,1
2017-06-20T10:40:03.463Z,0
2017-06-20T10:45:02.701Z,1
2017-06-20T10:50:02.981Z,2
2017-06-20T10:55:02.639Z,1
2017-06-20T11:00:02.872Z,0
2017-06-20T11:05:02.739Z,2
2017-06-20T11:10:02.891Z,0
2017-06-20T11:15:02.908Z,0
2017-06-20T11:20:02.577Z,2
2017-06-20T11:25:02.468Z,1
2017-06-20T11:30:03.009Z,2
2017-06-20T11:35:03.458Z,3
2017-06-20T11:40:02.522Z,0
2017-06-20T11:45:02.855Z,0
2017-06-20T11:50:02.899Z,0
2017-06-20T11:55:03.036Z,1
2017-06-20T12:00:03.022Z,2
2017-06-20T12:05:03.059Z,0
2017-06-20T12:10:03.064Z,1
2017-06-20T12:15:03.388Z,3
2017-06-20T12:20:03.215Z,3
2017-06-20T12:25:03.350Z,2
2017-06-20T12:30:03.217Z,0
2017-06-20T12:35:02.586Z,2
2017-06-20T12:40:02.902Z,4
2017-06-20T12:45:02.509Z,2
2017-06-20T12:50:02.664Z,4
2017-06-20T12:55:03.086Z,6
2017-06-20T13:00:03.302Z,2
2017-06-20T13:05:03.161Z,0
2017-06-20T13:10:02.438Z,5
2017-06-20T13:15:02.841Z,4
2017-06-20T13:20:03.102Z,5
2017-06-20T13:25:03.026Z,2
2017-06-20T13:30:03.336Z,4
2017-06-20T13:35:02.935Z,5
2017-06-20T13:40:03.267Z,0
2017-06-20T13:45:03.318Z,5
2017-06-20T13:50:02.504Z,3
2017-06-20T13:55:02.884Z,6
2017-06-20T14:00:03.194Z,3
2017-06-20T14:05:02.695Z,3
2017-06-20T14:10:03.048Z,4
2017-06-20T14:15:03.297Z,5
2017-06-20T14:20:02.568Z,2
2017-06-20T14:25:02.781Z,2
2017-06-20T14:30:03.068Z,3
2017-06-20T14:35:03.390Z,3
2017-06-20T14:40:02.879Z,3
2017-06-20T14:45:03.184Z,3
2017-06-20T14:50:02.561Z,5
2017-06-20T14:55:02.463Z,4
2017-06-20T15:00:03.079Z,3
2017-06-20T15:05:02.641Z,7
2017-06-20T15:10:03.110Z,3
2017-06-20T15:15:03.261Z,8
2017-06-20T15:20:02.852Z,5
2017-06-20T15:25:02.807Z,5
2017-06-20T15:30:03.270Z,7
2017-06-20T15:35:02.927Z,5
2017-06-20T15:40:03.140Z,4
2017-06-20T15:45:03.354Z,6
2017-06-20T15:50:03.460Z,6
2017-06-20T15:55:02.534Z,4
2017-06-20T16:00:02.853Z,5
2017-06-20T16:05:03.163Z,6
2017-06-20T16:10:02.471Z,6
2017-06-20T16:15:03.366Z,3
2017-06-20T16:20:03.257Z,4
2017-06-20T16:25:02.746Z,4
2017-06-20T16:30:02.926Z,7
2017-06-20T16:35:03.386Z,9
2017-06-20T16:40:03.302Z,5
2017-06-20T16:45:02.977Z,6
2017-06-20T16:50:03.213Z,2
2017-06-20T16:55:02.455Z,4
2017-06-20T17:00:02.891Z,8
2017-06-20T17:05:03.282Z,6
2017-06-20T17:10:02.528Z,7
2017-06-20T17:15:02.907Z,3
2017-06-20T17:20:02.644Z,6
2017-06-20T17:25:02.648Z,4
2017-06-20T17:30:02.878Z,6
2017-06-20T17:35:02.900Z,6
2017-06-20T17:40:03.331Z,7
2017-06-20T17:45:03.380Z,4
2017-06-20T17:50:02.713Z,3
2017-06-20T17:55:03.099Z,6
2017-06-20T18:00:02.803Z,5
2017-06-20T18:05:03.381Z,6
2017-06-20T18:10:02.734Z,4
2017-06-20T18:15:02.878Z,5
2017-06-20T18:20:03.100Z,7
2017-06-20T18:25:02.550Z,3
2017-06-20T18:30:02.776Z,4
2017-06-20T18:35:03.188Z,4
2017-06-20T18:40:02.917Z,8
2017-06-20T18:45:02.604Z,5
2017-06-20T18:50:02.915Z,3
2017-06-20T18:55:02.567Z,6
2017-06-20T19:00:02.685Z,5
2017-06-20T19:05:02.578Z,3
2017-06-20T19:10:03.087Z,4
2017-06-20T19:15:03.106Z,2
2017-06-20T19:20:02.563Z,2
2017-06-20T19:25:03.235Z,4
2017-06-20T19:30:03.236Z,2
2017-06-20T19:35:03.345Z,0
2017-06-20T19:40:02.966Z,2
2017-06-20T19:45:02.418Z,2
2017-06-20T19:50:03.288Z,0
2017-06-20T19:55:03.197Z,4
2017-06-20T20:00:02.798Z,2
2017-06-20T20:05:03.270Z,1
2017-06-20T20:10:03.279Z,2
2017-06-20T20:15:02.743Z,2
2017-06-20T20:20:02.837Z,3
2017-06-20T20:25:03.268Z,3
2017-06-20T20:30:03.174Z,2
2017-06-20T20:35:03.005Z,3
2017-06-20T20:40:03.229Z,2
2017-06-20T20:45:02.767Z,3
2017-06-20T20:50:03.041Z,2
2017-06-20T20:55:02.740Z,2
2017-06-20T21:00:03.250Z,2
2017-06-20T21:05:03.343Z,0
2017-06-20T21:10:02.612Z,0
2017-06-20T21:15:02.914Z,0
2017-06-20T21:20:03.261Z,1
2017-06-20T21:25:03.439Z,3
2017-06-20T21:30:03.203Z,0
2017-06-20T21:35:02.681Z,2
2017-06-20T21:40:03.073Z,1
2017-06-20T21:45:02.528Z,1
2017-06-20T21:50:02.913Z,0
2017-06-20T21:55:03.384Z,1
2017-06-20T22:00:02.679Z,0
2017-06-20T22:05:03.201Z,1
2017-06-20T22:10:02.567Z,0
2017-06-20T22:15:03.079Z,0
2017-06-20T22:20:02.590Z,0
2017-06-20T22:25:02.978Z,0
2017-06-20T22:30:02.461Z,0
2017-06-20T22:35:02.880Z,0
2017-06-20T22:40:03.151Z,0
2017-06-20T22:45:02.484Z,0
2017-06-20T22:50:02.899Z,0
2017-06-20T22:55:03.196Z,0
2017-06-20T23:00:02.745Z,1
2017-06-20T23:05:03.411Z,0
2017-06-20T23:10:02.739Z,0
2017-06-20T23:15:03.210Z,0
2017-06-20T23:20:02.674Z,0
2017-06-20T23:25:03.120Z,0
2017-06-20T23:30:03.420Z,0
2017-06-20T23:35:02.827Z,0
2017-06-20T23:40:03.294Z,0
2017-06-20T23:45:02.659Z,0
2017-06-20T23:50:03.006Z,0
2017-06-20T23:55:02.510Z,0
